Time;durP1;ratioP1;P1;durP2;ratioP2;P2;SDS_P1;SDS_P2;PMS_P1;PMS_P2;Temp;Humidity;BMP_temperature;BMP_pressure;BME280_temperature;BME280_humidity;BME280_pressure;Samples;Min_cycle;Max_cycle;Signal;HPM_P1;HPM_P2
2023/07/30 00:01:12;;;;;;;3.25;2.63;;;;;;;;;;5076303;28;20013;-76
2023/07/30 00:03:40;;;;;;;4.13;2.53;;;;;;;;;;5093517;28;20031;-75
2023/07/30 00:06:09;;;;;;;3.10;2.25;;;;;;;;;;5077287;28;20016;-74
2023/07/30 00:08:35;;;;;;;3.95;2.60;;;;;;;;;;5094903;28;20084;-74
2023/07/30 00:11:06;;;;;;;8.60;2.97;;;;;;;;;;5080116;28;20044;-74
2023/07/30 00:13:32;;;;;;;4.45;2.50;;;;;;;;;;5076731;28;20039;-74
2023/07/30 00:15:58;;;;;;;3.97;2.67;;;;;;;;;;5079112;28;20033;-75
2023/07/30 00:18:24;;;;;;;4.45;3.03;;;;;;;;;;5076178;28;20099;-75
2023/07/30 00:20:52;;;;;;;3.50;2.35;;;;;;;;;;5079643;28;20032;-74
2023/07/30 00:23:18;;;;;;;8.80;2.63;;;;;;;;;;5078382;28;20019;-75
2023/07/30 00:25:44;;;;;;;6.72;2.67;;;;;;;;;;5077185;28;20016;-74
2023/07/30 00:28:12;;;;;;;4.10;2.65;;;;;;;;;;5077970;28;20033;-74
2023/07/30 00:30:38;;;;;;;3.67;2.55;;;;;;;;;;5078069;28;20052;-75
2023/07/30 00:33:04;;;;;;;6.15;2.45;;;;;;;;;;5079932;28;20024;-74
2023/07/30 00:35:30;;;;;;;4.25;2.65;;;;;;;;;;5092775;28;20084;-75
2023/07/30 00:37:56;;;;;;;4.93;2.88;;;;;;;;;;5075931;28;20029;-74
2023/07/30 00:40:22;;;;;;;7.90;3.00;;;;;;;;;;5073723;28;20017;-74
2023/07/30 00:42:48;;;;;;;8.50;3.10;;;;;;;;;;5077156;28;20033;-75
2023/07/30 00:45:14;;;;;;;7.85;2.83;;;;;;;;;;5094249;28;20024;-74
2023/07/30 00:47:45;;;;;;;6.68;3.10;;;;;;;;;;5076449;28;20037;-75
2023/07/30 00:50:13;;;;;;;5.03;3.70;;;;;;;;;;5073443;28;20057;-74
2023/07/30 00:52:39;;;;;;;9.48;3.17;;;;;;;;;;5077746;28;20021;-74
2023/07/30 00:55:08;;;;;;;4.88;3.28;;;;;;;;;;5074116;28;20033;-74
2023/07/30 00:57:35;;;;;;;5.38;3.13;;;;;;;;;;5077242;28;20021;-74
2023/07/30 01:00:05;;;;;;;10.68;3.47;;;;;;;;;;5095674;28;20013;-74
2023/07/30 01:02:32;;;;;;;4.60;3.30;;;;;;;;;;5077617;28;20017;-74
2023/07/30 01:04:59;;;;;;;5.28;2.72;;;;;;;;;;5095623;28;20025;-75
2023/07/30 01:07:25;;;;;;;3.50;2.58;;;;;;;;;;5077765;28;20403;-74
2023/07/30 01:09:52;;;;;;;7.82;3.53;;;;;;;;;;5076609;28;20059;-74
2023/07/30 01:12:20;;;;;;;7.75;3.03;;;;;;;;;;5076391;28;20087;-74
2023/07/30 01:14:46;;;;;;;6.90;3.65;;;;;;;;;;5093397;28;20021;-75
2023/07/30 01:17:12;;;;;;;5.53;3.03;;;;;;;;;;5078114;28;20037;-74
2023/07/30 01:19:38;;;;;;;8.15;3.20;;;;;;;;;;5072768;28;20108;-74
2023/07/30 01:22:04;;;;;;;5.68;3.55;;;;;;;;;;5077309;28;20036;-75
2023/07/30 01:24:30;;;;;;;4.88;3.40;;;;;;;;;;5077712;28;20036;-75
2023/07/30 01:27:02;;;;;;;7.60;2.95;;;;;;;;;;5076232;28;20040;-74
2023/07/30 01:29:30;;;;;;;10.50;3.70;;;;;;;;;;5078797;28;20039;-74
2023/07/30 01:32:04;;;;;;;6.50;3.05;;;;;;;;;;5092091;28;20037;-74
2023/07/30 01:34:34;;;;;;;5.47;3.15;;;;;;;;;;5073837;28;20017;-75
2023/07/30 01:37:01;;;;;;;4.57;3.33;;;;;;;;;;5076161;28;20025;-74
2023/07/30 01:39:28;;;;;;;9.82;2.90;;;;;;;;;;5075514;28;20043;-75
2023/07/30 01:41:54;;;;;;;4.45;2.60;;;;;;;;;;5073096;28;20020;-74
2023/07/30 01:44:22;;;;;;;6.30;2.88;;;;;;;;;;5076280;28;20085;-74
2023/07/30 01:46:48;;;;;;;6.50;3.00;;;;;;;;;;5076962;28;20016;-74
2023/07/30 01:49:14;;;;;;;6.43;3.45;;;;;;;;;;5075914;28;20052;-75
2023/07/30 01:51:40;;;;;;;6.38;2.45;;;;;;;;;;5077085;28;20043;-75
2023/07/30 01:54:06;;;;;;;6.68;2.97;;;;;;;;;;5093115;28;20009;-74
2023/07/30 01:56:32;;;;;;;6.97;3.33;;;;;;;;;;5076288;28;20092;-75
2023/07/30 01:58:58;;;;;;;6.28;2.92;;;;;;;;;;5076276;28;20037;-75
2023/07/30 02:01:27;;;;;;;7.45;2.88;;;;;;;;;;5075826;28;20207;-74
2023/07/30 02:03:53;;;;;;;5.68;3.25;;;;;;;;;;5074585;28;20009;-75
2023/07/30 02:06:19;;;;;;;5.30;3.05;;;;;;;;;;5075365;28;20021;-75
2023/07/30 02:08:44;;;;;;;10.82;3.42;;;;;;;;;;5075237;28;20035;-75
2023/07/30 02:11:13;;;;;;;4.60;2.67;;;;;;;;;;5075399;28;20036;-75
2023/07/30 02:13:39;;;;;;;9.98;3.13;;;;;;;;;;5077119;28;20012;-75
2023/07/30 02:16:07;;;;;;;5.25;2.72;;;;;;;;;;5075540;28;20021;-75
2023/07/30 02:18:33;;;;;;;8.23;3.40;;;;;;;;;;5078672;28;20021;-75
2023/07/30 02:20:59;;;;;;;5.43;2.83;;;;;;;;;;5073055;28;20025;-75
2023/07/30 02:23:28;;;;;;;7.43;3.33;;;;;;;;;;5071864;28;20040;-75
2023/07/30 02:25:54;;;;;;;4.30;2.95;;;;;;;;;;5078015;28;20028;-75
2023/07/30 02:28:20;;;;;;;10.60;3.63;;;;;;;;;;5072891;28;20033;-75
2023/07/30 02:30:46;;;;;;;6.50;2.80;;;;;;;;;;5076682;28;20036;-75
2023/07/30 02:33:12;;;;;;;3.78;2.65;;;;;;;;;;5075800;28;20014;-75
2023/07/30 02:35:38;;;;;;;11.65;3.47;;;;;;;;;;5076858;28;20020;-74
2023/07/30 02:38:04;;;;;;;7.35;2.88;;;;;;;;;;5073896;28;20040;-75
2023/07/30 02:40:30;;;;;;;7.55;3.20;;;;;;;;;;5075607;28;20023;-75
2023/07/30 02:42:56;;;;;;;6.97;3.55;;;;;;;;;;5135253;22;20071;-74
2023/07/30 02:45:22;;;;;;;7.80;3.20;;;;;;;;;;5091318;28;20025;-75
2023/07/30 02:47:48;;;;;;;6.90;2.38;;;;;;;;;;5097695;28;20092;-75
2023/07/30 02:50:14;;;;;;;5.28;2.83;;;;;;;;;;5096017;28;20082;-75
2023/07/30 02:52:40;;;;;;;8.70;2.80;;;;;;;;;;5082654;28;20024;-74
2023/07/30 02:55:07;;;;;;;5.50;2.90;;;;;;;;;;5086927;28;20182;-75
2023/07/30 02:57:32;;;;;;;8.15;3.22;;;;;;;;;;5100678;28;20008;-75
2023/07/30 02:59:58;;;;;;;10.35;3.30;;;;;;;;;;5099941;28;20044;-75
2023/07/30 03:02:24;;;;;;;6.32;2.42;;;;;;;;;;5082744;28;20067;-75
2023/07/30 03:04:50;;;;;;;12.90;3.15;;;;;;;;;;5099761;28;20370;-75
2023/07/30 03:07:18;;;;;;;5.53;2.75;;;;;;;;;;5099676;28;20016;-75
2023/07/30 03:09:44;;;;;;;7.65;3.50;;;;;;;;;;5078892;28;20088;-75
2023/07/30 03:12:10;;;;;;;8.52;3.25;;;;;;;;;;5100148;28;20017;-75
2023/07/30 03:14:36;;;;;;;7.93;2.42;;;;;;;;;;5100406;28;20035;-74
2023/07/30 03:17:02;;;;;;;8.48;3.10;;;;;;;;;;5078820;28;20023;-75
2023/07/30 03:19:28;;;;;;;7.35;2.72;;;;;;;;;;5100544;28;20016;-75
2023/07/30 03:21:54;;;;;;;7.45;2.92;;;;;;;;;;5099486;28;20025;-75
2023/07/30 03:24:20;;;;;;;8.80;2.70;;;;;;;;;;5077939;28;20028;-74
2023/07/30 03:26:46;;;;;;;6.65;3.03;;;;;;;;;;5080452;28;20046;-75
2023/07/30 03:29:12;;;;;;;9.38;2.67;;;;;;;;;;5098703;28;20048;-75
2023/07/30 03:31:38;;;;;;;8.20;3.05;;;;;;;;;;5081456;28;20039;-75
2023/07/30 03:34:04;;;;;;;10.45;3.38;;;;;;;;;;5077452;28;20024;-75
2023/07/30 03:36:30;;;;;;;7.15;3.97;;;;;;;;;;5079645;28;20039;-75
2023/07/30 03:38:56;;;;;;;10.45;3.00;;;;;;;;;;5097497;28;20034;-75
2023/07/30 03:41:22;;;;;;;9.20;2.67;;;;;;;;;;5080845;28;20127;-75
2023/07/30 03:43:48;;;;;;;12.50;3.33;;;;;;;;;;5079890;28;20039;-75
2023/07/30 03:46:14;;;;;;;10.38;2.53;;;;;;;;;;5081857;28;20037;-74
2023/07/30 03:48:40;;;;;;;14.82;2.90;;;;;;;;;;5097302;28;20111;-76
2023/07/30 03:51:10;;;;;;;15.20;3.28;;;;;;;;;;5097619;28;20048;-75
2023/07/30 03:53:36;;;;;;;6.07;2.63;;;;;;;;;;5081343;28;20031;-75
2023/07/30 03:56:02;;;;;;;8.80;2.30;;;;;;;;;;5082465;28;20024;-75
2023/07/30 03:58:30;;;;;;;8.48;2.85;;;;;;;;;;5083072;28;20040;-75
2023/07/30 04:00:59;;;;;;;8.63;2.90;;;;;;;;;;5093261;28;20019;-75
2023/07/30 04:03:25;;;;;;;6.07;2.60;;;;;;;;;;5077269;28;20096;-75
2023/07/30 04:05:51;;;;;;;9.88;3.10;;;;;;;;;;5081337;28;20013;-74
2023/07/30 04:08:17;;;;;;;13.93;3.22;;;;;;;;;;5077794;28;20036;-75
2023/07/30 04:10:43;;;;;;;8.55;3.17;;;;;;;;;;5080389;28;20031;-75
2023/07/30 04:13:09;;;;;;;10.70;3.28;;;;;;;;;;5081128;28;20012;-75
2023/07/30 04:15:35;;;;;;;8.07;2.95;;;;;;;;;;5079369;28;20016;-75
2023/07/30 04:18:01;;;;;;;13.63;4.10;;;;;;;;;;5079277;28;20020;-75
2023/07/30 04:20:27;;;;;;;8.77;3.25;;;;;;;;;;5078737;28;20023;-75
2023/07/30 04:22:53;;;;;;;10.80;2.70;;;;;;;;;;5094144;28;20020;-75
2023/07/30 04:25:19;;;;;;;11.90;2.97;;;;;;;;;;5093385;28;21196;-75
2023/07/30 04:27:48;;;;;;;11.35;2.85;;;;;;;;;;5080921;28;20143;-75
2023/07/30 04:30:14;;;;;;;9.70;3.08;;;;;;;;;;5098311;28;20099;-75
2023/07/30 04:32:43;;;;;;;9.80;2.72;;;;;;;;;;5097525;28;20029;-75
2023/07/30 04:35:09;;;;;;;11.85;3.28;;;;;;;;;;5097352;28;20032;-75
2023/07/30 04:37:35;;;;;;;10.60;3.00;;;;;;;;;;5076808;28;20025;-75
2023/07/30 04:40:02;;;;;;;9.73;3.55;;;;;;;;;;5079288;28;20070;-76
2023/07/30 04:42:28;;;;;;;11.90;3.03;;;;;;;;;;5093638;28;20048;-75
2023/07/30 04:44:54;;;;;;;15.23;2.83;;;;;;;;;;5076264;28;20185;-75
2023/07/30 04:47:20;;;;;;;11.13;3.30;;;;;;;;;;5097314;28;20019;-75
2023/07/30 04:49:46;;;;;;;9.43;2.70;;;;;;;;;;5078434;28;20029;-75
2023/07/30 04:52:12;;;;;;;9.45;3.05;;;;;;;;;;5080834;28;20029;-75
2023/07/30 04:54:38;;;;;;;9.98;3.25;;;;;;;;;;5076618;28;20027;-75
2023/07/30 04:57:05;;;;;;;5.55;2.28;;;;;;;;;;5075761;28;20092;-75
2023/07/30 04:59:33;;;;;;;8.10;2.67;;;;;;;;;;5099202;28;20024;-75
2023/07/30 05:01:59;;;;;;;11.07;2.75;;;;;;;;;;5076448;28;20042;-75
2023/07/30 05:04:25;;;;;;;12.27;2.85;;;;;;;;;;5093237;28;20095;-75
2023/07/30 05:06:51;;;;;;;13.00;3.28;;;;;;;;;;5076916;28;20088;-75
2023/07/30 05:09:17;;;;;;;7.85;2.63;;;;;;;;;;5077424;28;20033;-75
2023/07/30 05:11:46;;;;;;;11.23;2.42;;;;;;;;;;5080669;28;20054;-76
2023/07/30 05:14:12;;;;;;;8.27;1.80;;;;;;;;;;5083253;28;20017;-75
2023/07/30 05:16:38;;;;;;;7.60;2.40;;;;;;;;;;5092255;28;20016;-75
2023/07/30 05:19:05;;;;;;;9.40;2.20;;;;;;;;;;5075649;28;20121;-75
2023/07/30 05:21:31;;;;;;;8.23;2.72;;;;;;;;;;5099280;28;20111;-76
2023/07/30 05:23:56;;;;;;;7.10;2.30;;;;;;;;;;5076692;28;20031;-75
2023/07/30 05:26:29;;;;;;;9.68;1.95;;;;;;;;;;5096354;28;20225;-75
2023/07/30 05:28:55;;;;;;;10.18;2.20;;;;;;;;;;5097929;28;20020;-76
2023/07/30 05:31:21;;;;;;;8.15;2.47;;;;;;;;;;5079096;28;20334;-75
2023/07/30 05:33:47;;;;;;;6.97;1.60;;;;;;;;;;5079943;28;20105;-76
2023/07/30 05:36:13;;;;;;;10.45;1.95;;;;;;;;;;5080080;28;20035;-75
2023/07/30 05:38:39;;;;;;;13.55;1.80;;;;;;;;;;5080258;28;20028;-75
2023/07/30 05:41:05;;;;;;;7.03;1.60;;;;;;;;;;5098274;28;20039;-75
2023/07/30 05:43:31;;;;;;;6.25;1.70;;;;;;;;;;5097770;28;20067;-75
2023/07/30 05:45:57;;;;;;;7.05;1.40;;;;;;;;;;5080367;28;20024;-75
2023/07/30 05:48:23;;;;;;;7.13;1.70;;;;;;;;;;5079093;28;20044;-75
2023/07/30 05:50:49;;;;;;;4.32;1.45;;;;;;;;;;5077397;28;20036;-76
2023/07/30 05:53:15;;;;;;;9.13;1.15;;;;;;;;;;5092367;28;20012;-75
2023/07/30 05:55:41;;;;;;;7.80;2.33;;;;;;;;;;5078655;28;20020;-75
2023/07/30 05:58:07;;;;;;;9.32;1.17;;;;;;;;;;5092638;28;20050;-75
2023/07/30 06:00:33;;;;;;;5.93;1.75;;;;;;;;;;5079372;28;20097;-76
2023/07/30 06:03:00;;;;;;;7.82;1.30;;;;;;;;;;5096412;28;20036;-76
2023/07/30 06:05:26;;;;;;;7.40;1.90;;;;;;;;;;5095874;28;20005;-76
2023/07/30 06:07:52;;;;;;;4.93;1.63;;;;;;;;;;5096517;28;20064;-75
2023/07/30 06:10:18;;;;;;;5.57;1.13;;;;;;;;;;5093826;28;20061;-75
2023/07/30 06:12:44;;;;;;;5.85;1.15;;;;;;;;;;5079442;28;20016;-77
2023/07/30 06:15:11;;;;;;;8.07;1.65;;;;;;;;;;5097292;28;20029;-77
2023/07/30 06:17:37;;;;;;;6.97;1.02;;;;;;;;;;5078627;28;20013;-76
2023/07/30 06:20:04;;;;;;;5.93;1.52;;;;;;;;;;5091714;28;20020;-76
2023/07/30 06:22:30;;;;;;;7.60;1.80;;;;;;;;;;5077981;28;20084;-76
2023/07/30 06:24:56;;;;;;;8.18;1.63;;;;;;;;;;5076889;28;20024;-77
2023/07/30 06:27:22;;;;;;;7.25;2.00;;;;;;;;;;5092823;28;20020;-76
2023/07/30 06:29:48;;;;;;;7.00;1.95;;;;;;;;;;5077299;28;20040;-76
2023/07/30 06:32:14;;;;;;;10.45;2.30;;;;;;;;;;5095231;28;20059;-76
2023/07/30 06:34:43;;;;;;;5.57;1.40;;;;;;;;;;5080985;28;20021;-76
2023/07/30 06:37:11;;;;;;;4.55;1.65;;;;;;;;;;5092038;28;20021;-75
2023/07/30 06:39:37;;;;;;;9.10;2.25;;;;;;;;;;5098600;28;20076;-76
2023/07/30 06:42:03;;;;;;;7.60;2.25;;;;;;;;;;5091983;28;20017;-76
2023/07/30 06:44:29;;;;;;;7.15;1.23;;;;;;;;;;5080598;28;20147;-77
2023/07/30 06:46:55;;;;;;;12.65;1.90;;;;;;;;;;5091823;28;20047;-75
2023/07/30 06:49:22;;;;;;;7.80;1.55;;;;;;;;;;5077523;28;20027;-76
2023/07/30 06:51:48;;;;;;;8.45;1.65;;;;;;;;;;5074773;28;20028;-77
2023/07/30 06:54:14;;;;;;;6.88;1.50;;;;;;;;;;5078936;28;20028;-76
2023/07/30 06:56:40;;;;;;;5.35;1.65;;;;;;;;;;5077555;28;20024;-76
2023/07/30 06:59:06;;;;;;;5.20;1.80;;;;;;;;;;5077197;28;20047;-76
2023/07/30 07:01:32;;;;;;;2.47;0.90;;;;;;;;;;5096051;28;20028;-75
2023/07/30 07:03:59;;;;;;;14.00;1.58;;;;;;;;;;5092338;28;20021;-75
2023/07/30 07:06:25;;;;;;;3.75;1.17;;;;;;;;;;5096597;28;20005;-74
2023/07/30 07:08:51;;;;;;;6.28;1.17;;;;;;;;;;5096960;28;20037;-75
2023/07/30 07:11:16;;;;;;;10.55;1.98;;;;;;;;;;5093946;28;20021;-75
2023/07/30 07:13:42;;;;;;;9.80;1.40;;;;;;;;;;5079797;28;20086;-74
2023/07/30 07:16:08;;;;;;;9.40;1.50;;;;;;;;;;5091777;28;20024;-74
2023/07/30 07:18:35;;;;;;;6.13;1.25;;;;;;;;;;5088091;28;20039;-76
2023/07/30 07:21:01;;;;;;;10.60;1.58;;;;;;;;;;5074173;28;20051;-75
2023/07/30 07:23:27;;;;;;;12.02;1.75;;;;;;;;;;5071146;28;20028;-75
2023/07/30 07:25:53;;;;;;;5.82;1.45;;;;;;;;;;5089303;28;20104;-75
2023/07/30 07:28:19;;;;;;;7.15;1.17;;;;;;;;;;5086742;28;20028;-75
2023/07/30 07:30:45;;;;;;;11.48;1.20;;;;;;;;;;5074330;28;20043;-80
2023/07/30 07:33:14;;;;;;;6.57;1.27;;;;;;;;;;5084709;28;20032;-75
2023/07/30 07:35:40;;;;;;;6.28;1.58;;;;;;;;;;5090248;28;20024;-74
2023/07/30 07:38:06;;;;;;;14.70;1.90;;;;;;;;;;5092146;28;20032;-74
2023/07/30 07:40:39;;;;;;;6.15;1.75;;;;;;;;;;5083939;28;20024;-78
2023/07/30 07:43:05;;;;;;;5.75;1.65;;;;;;;;;;5077171;28;20024;-75
2023/07/30 07:45:31;;;;;;;11.02;1.88;;;;;;;;;;5093026;28;20032;-77
2023/07/30 07:47:57;;;;;;;8.20;1.33;;;;;;;;;;5087651;28;20025;-76
2023/07/30 07:50:23;;;;;;;8.30;1.60;;;;;;;;;;5058614;28;20044;-79
2023/07/30 07:52:49;;;;;;;7.53;1.20;;;;;;;;;;5057365;28;20512;-80
2023/07/30 07:55:15;;;;;;;10.43;1.98;;;;;;;;;;5067578;28;20032;-78
2023/07/30 07:57:41;;;;;;;7.00;1.67;;;;;;;;;;5059554;28;20036;-78
2023/07/30 08:00:07;;;;;;;8.05;1.65;;;;;;;;;;5078144;28;20032;-79
2023/07/30 08:02:33;;;;;;;7.40;2.30;;;;;;;;;;5062236;28;20040;-79
2023/07/30 08:04:59;;;;;;;8.95;1.80;;;;;;;;;;5055374;28;20102;-81
2023/07/30 08:07:25;;;;;;;11.50;2.08;;;;;;;;;;5070028;28;20036;-80
2023/07/30 08:09:51;;;;;;;6.80;1.85;;;;;;;;;;5070451;28;20118;-80
2023/07/30 08:12:17;;;;;;;10.10;2.10;;;;;;;;;;5050565;28;20127;-80
2023/07/30 08:14:43;;;;;;;7.85;2.15;;;;;;;;;;5053958;28;20056;-78
2023/07/30 08:17:09;;;;;;;9.57;2.35;;;;;;;;;;5055728;28;20083;-81
2023/07/30 08:19:37;;;;;;;11.63;2.50;;;;;;;;;;5061989;28;20024;-78
2023/07/30 08:22:04;;;;;;;8.68;2.25;;;;;;;;;;5073817;28;20440;-79
2023/07/30 08:24:30;;;;;;;8.27;2.03;;;;;;;;;;5072262;28;20044;-81
2023/07/30 08:26:58;;;;;;;9.88;2.40;;;;;;;;;;5057979;28;20028;-79
2023/07/30 08:29:26;;;;;;;10.35;1.92;;;;;;;;;;5060383;28;20035;-79
2023/07/30 08:31:52;;;;;;;13.82;2.03;;;;;;;;;;5073738;28;20041;-82
2023/07/30 08:34:18;;;;;;;8.85;2.22;;;;;;;;;;5066148;28;20032;-81
2023/07/30 08:36:46;;;;;;;14.82;3.38;;;;;;;;;;5072884;28;20037;-79
2023/07/30 08:39:14;;;;;;;15.65;2.17;;;;;;;;;;5065680;28;20067;-83
2023/07/30 08:41:41;;;;;;;11.35;2.42;;;;;;;;;;5073091;28;20135;-77
2023/07/30 08:44:07;;;;;;;13.05;2.45;;;;;;;;;;5051472;28;20059;-80
2023/07/30 08:46:33;;;;;;;9.85;2.53;;;;;;;;;;5070482;28;20032;-81
2023/07/30 08:48:59;;;;;;;10.15;2.13;;;;;;;;;;5070611;28;20051;-82
2023/07/30 08:51:26;;;;;;;6.68;2.05;;;;;;;;;;5069151;28;20484;-84
2023/07/30 08:53:52;;;;;;;10.88;2.45;;;;;;;;;;5053855;28;20024;-80
2023/07/30 08:56:19;;;;;;;8.65;2.08;;;;;;;;;;5066791;28;20024;-80
2023/07/30 08:58:45;;;;;;;8.15;2.05;;;;;;;;;;5066028;28;20028;-79
2023/07/30 09:01:12;;;;;;;10.18;3.05;;;;;;;;;;5070891;28;20036;-80
2023/07/30 09:03:41;;;;;;;12.55;2.65;;;;;;;;;;5053820;28;20032;-82
2023/07/30 09:06:07;;;;;;;9.48;1.98;;;;;;;;;;5052810;28;20032;-80
2023/07/30 09:08:33;;;;;;;12.07;2.05;;;;;;;;;;5053656;28;20093;-81
2023/07/30 09:11:12;;;;;;;9.40;2.13;;;;;;;;;;5066046;28;20049;-84
2023/07/30 09:13:44;;;;;;;12.43;2.60;;;;;;;;;;5066268;28;20039;-84
2023/07/30 09:16:11;;;;;;;6.47;1.73;;;;;;;;;;5068516;28;20028;-80
2023/07/30 09:18:46;;;;;;;8.10;1.70;;;;;;;;;;5065688;28;20566;-80
2023/07/30 09:21:14;;;;;;;10.63;2.40;;;;;;;;;;5049082;28;20040;-84
2023/07/30 09:23:44;;;;;;;9.52;2.47;;;;;;;;;;5070025;28;20032;-81
2023/07/30 09:26:11;;;;;;;9.98;2.45;;;;;;;;;;5065535;28;20496;-79
2023/07/30 09:28:40;;;;;;;8.48;2.47;;;;;;;;;;5070511;28;20066;-81
2023/07/30 09:31:09;;;;;;;8.05;2.10;;;;;;;;;;5051691;28;20086;-81
2023/07/30 09:33:35;;;;;;;10.00;2.00;;;;;;;;;;5069145;28;20043;-77
2023/07/30 09:36:04;;;;;;;9.50;1.95;;;;;;;;;;5069374;28;20032;-80
2023/07/30 09:38:33;;;;;;;5.70;1.75;;;;;;;;;;5070736;28;20028;-80
2023/07/30 09:41:02;;;;;;;10.85;2.22;;;;;;;;;;5079119;28;20036;-78
2023/07/30 09:43:31;;;;;;;12.85;1.83;;;;;;;;;;5092023;28;20020;-74
2023/07/30 09:46:01;;;;;;;11.93;1.70;;;;;;;;;;5080950;28;21562;-81
2023/07/30 09:48:28;;;;;;;11.20;2.53;;;;;;;;;;5065632;28;20028;-82
2023/07/30 09:50:54;;;;;;;5.95;2.00;;;;;;;;;;5050216;28;20094;-81
2023/07/30 09:53:23;;;;;;;10.73;1.90;;;;;;;;;;5065350;28;20039;-78
2023/07/30 09:55:49;;;;;;;9.05;1.80;;;;;;;;;;5065433;28;21563;-82
2023/07/30 09:58:15;;;;;;;8.63;1.55;;;;;;;;;;5052081;28;20016;-81
2023/07/30 10:00:41;;;;;;;8.88;2.30;;;;;;;;;;5064182;28;20054;-80
2023/07/30 10:03:10;;;;;;;14.50;2.55;;;;;;;;;;5068739;28;20107;-82
2023/07/30 10:05:38;;;;;;;10.43;1.63;;;;;;;;;;5071736;28;20032;-79
2023/07/30 10:08:10;;;;;;;7.57;2.08;;;;;;;;;;5051953;28;20020;-82
2023/07/30 10:10:36;;;;;;;9.35;1.63;;;;;;;;;;5071948;28;20134;-80
2023/07/30 10:13:05;;;;;;;8.07;2.10;;;;;;;;;;5070030;28;20820;-84
2023/07/30 10:15:34;;;;;;;4.80;1.40;;;;;;;;;;5064164;28;20512;-82
2023/07/30 10:18:01;;;;;;;11.35;2.15;;;;;;;;;;5064846;28;20040;-81
2023/07/30 10:20:29;;;;;;;11.25;1.77;;;;;;;;;;5070458;28;20031;-82
2023/07/30 10:22:59;;;;;;;12.30;1.90;;;;;;;;;;5068301;28;20024;-81
2023/07/30 10:25:44;;;;;;;7.70;2.10;;;;;;;;;;5052590;28;20047;-81
2023/07/30 10:28:26;;;;;;;7.18;1.65;;;;;;;;;;5064566;28;20055;-78
2023/07/30 10:30:59;;;;;;;9.40;1.92;;;;;;;;;;5068018;28;20031;-83
2023/07/30 10:33:44;;;;;;;5.65;1.63;;;;;;;;;;5069133;28;20048;-84
2023/07/30 10:36:10;;;;;;;10.60;1.75;;;;;;;;;;5069354;28;20368;-83
2023/07/30 10:38:36;;;;;;;6.75;1.60;;;;;;;;;;5047567;28;20451;-81
2023/07/30 10:41:13;;;;;;;10.52;2.20;;;;;;;;;;5068704;28;20040;-85
2023/07/30 10:43:39;;;;;;;7.00;1.60;;;;;;;;;;5052142;28;20098;-85
2023/07/30 10:46:05;;;;;;;11.70;2.20;;;;;;;;;;5068178;28;20564;-83
2023/07/30 10:48:39;;;;;;;7.75;1.48;;;;;;;;;;5068437;28;20033;-82
2023/07/30 10:51:06;;;;;;;5.80;1.60;;;;;;;;;;5047188;28;20043;-82
2023/07/30 10:53:32;;;;;;;6.43;1.98;;;;;;;;;;5050172;28;20041;-80
2023/07/30 10:56:01;;;;;;;4.53;1.15;;;;;;;;;;5064794;28;20039;-83
2023/07/30 10:58:27;;;;;;;8.00;2.05;;;;;;;;;;5069999;28;20024;-83
2023/07/30 11:00:53;;;;;;;5.20;1.42;;;;;;;;;;5066951;28;20463;-81
2023/07/30 11:03:19;;;;;;;11.75;1.60;;;;;;;;;;5063669;28;20032;-82
2023/07/30 11:05:51;;;;;;;4.70;1.00;;;;;;;;;;5064005;28;20040;-84
2023/07/30 11:08:17;;;;;;;8.65;1.30;;;;;;;;;;5068981;28;20037;-81
2023/07/30 11:10:44;;;;;;;3.42;0.73;;;;;;;;;;5056220;28;20036;-84
2023/07/30 11:13:10;;;;;;;7.05;1.23;;;;;;;;;;5074654;28;20024;-85
2023/07/30 11:15:41;;;;;;;3.42;0.82;;;;;;;;;;5072332;28;20052;-79
2023/07/30 11:18:07;;;;;;;5.10;1.13;;;;;;;;;;5067572;28;20029;-83
2023/07/30 11:20:33;;;;;;;3.88;1.00;;;;;;;;;;5058811;28;20047;-83
2023/07/30 11:22:59;;;;;;;3.70;0.98;;;;;;;;;;5072930;28;20484;-83
2023/07/30 11:25:25;;;;;;;5.60;1.20;;;;;;;;;;5056112;28;20158;-84
2023/07/30 11:27:54;;;;;;;5.60;0.80;;;;;;;;;;5072404;28;20033;-81
2023/07/30 11:30:28;;;;;;;6.72;1.25;;;;;;;;;;5072497;28;20123;-83
2023/07/30 11:32:56;;;;;;;5.78;1.27;;;;;;;;;;5051147;28;20065;-83
2023/07/30 11:35:22;;;;;;;6.35;1.02;;;;;;;;;;5071085;28;20033;-81
2023/07/30 11:37:48;;;;;;;5.85;1.50;;;;;;;;;;5067331;28;20032;-83
2023/07/30 11:40:14;;;;;;;4.93;1.23;;;;;;;;;;5068798;28;20031;-84
2023/07/30 11:42:42;;;;;;;7.40;1.23;;;;;;;;;;5056094;28;20155;-78
2023/07/30 11:45:18;;;;;;;5.90;1.13;;;;;;;;;;5073186;28;20100;-85
2023/07/30 11:47:44;;;;;;;3.80;1.00;;;;;;;;;;5071333;28;20458;-82
2023/07/30 11:50:10;;;;;;;3.97;1.00;;;;;;;;;;5055872;28;20036;-77
2023/07/30 11:52:36;;;;;;;6.45;0.93;;;;;;;;;;5087743;28;20051;-78
2023/07/30 11:55:08;;;;;;;9.43;1.30;;;;;;;;;;5075874;28;20028;-81
2023/07/30 11:57:39;;;;;;;4.32;0.93;;;;;;;;;;5080545;28;20012;-76
2023/07/30 12:00:08;;;;;;;5.32;1.13;;;;;;;;;;5090972;28;20031;-77
2023/07/30 12:02:34;;;;;;;5.75;0.93;;;;;;;;;;5070952;28;20116;-80
2023/07/30 12:05:00;;;;;;;6.43;1.30;;;;;;;;;;5068380;28;20032;-80
2023/07/30 12:07:26;;;;;;;4.93;1.38;;;;;;;;;;5068274;28;20028;-78
2023/07/30 12:09:52;;;;;;;6.05;1.85;;;;;;;;;;5075054;28;20163;-78
2023/07/30 12:12:18;;;;;;;5.55;1.08;;;;;;;;;;5082554;28;20035;-82
2023/07/30 12:14:47;;;;;;;8.13;1.90;;;;;;;;;;5072379;28;20032;-80
2023/07/30 12:17:13;;;;;;;7.15;1.30;;;;;;;;;;5071439;28;21665;-83
2023/07/30 12:19:40;;;;;;;12.70;2.13;;;;;;;;;;5071741;28;20084;-77
2023/07/30 12:22:06;;;;;;;5.85;1.58;;;;;;;;;;5078797;28;20020;-76
2023/07/30 12:24:32;;;;;;;7.25;1.45;;;;;;;;;;5055988;28;20043;-80
2023/07/30 12:27:01;;;;;;;5.68;1.40;;;;;;;;;;5070889;28;20020;-80
2023/07/30 12:29:29;;;;;;;6.68;1.52;;;;;;;;;;5072215;28;20029;-80
2023/07/30 12:31:55;;;;;;;8.40;1.70;;;;;;;;;;5067571;28;20253;-84
2023/07/30 12:34:22;;;;;;;5.40;1.27;;;;;;;;;;5054055;28;20048;-79
2023/07/30 12:36:48;;;;;;;3.03;0.98;;;;;;;;;;5069928;28;20161;-78
2023/07/30 12:39:14;;;;;;;5.25;1.40;;;;;;;;;;5062263;28;20089;-81
2023/07/30 12:41:40;;;;;;;4.72;1.05;;;;;;;;;;5052964;28;20036;-84
2023/07/30 12:44:06;;;;;;;7.47;1.33;;;;;;;;;;5070849;28;20078;-80
2023/07/30 12:46:33;;;;;;;9.40;1.73;;;;;;;;;;5053983;28;20119;-84
2023/07/30 12:49:04;;;;;;;7.07;1.65;;;;;;;;;;5065902;28;20032;-85
2023/07/30 12:51:30;;;;;;;9.02;1.80;;;;;;;;;;5070222;28;20037;-85
2023/07/30 12:53:56;;;;;;;7.03;1.90;;;;;;;;;;5065824;28;20028;-85
2023/07/30 12:56:22;;;;;;;5.40;1.00;;;;;;;;;;5065605;28;20058;-82
2023/07/30 12:58:50;;;;;;;5.43;1.35;;;;;;;;;;5070712;28;20043;-84
2023/07/30 13:01:16;;;;;;;8.27;1.52;;;;;;;;;;5069499;28;20044;-82
2023/07/30 13:03:46;;;;;;;5.43;1.10;;;;;;;;;;5071644;28;20040;-85
2023/07/30 13:06:12;;;;;;;6.63;1.90;;;;;;;;;;5070719;28;20043;-86
2023/07/30 13:08:41;;;;;;;6.85;1.50;;;;;;;;;;5051950;28;20119;-84
2023/07/30 13:11:08;;;;;;;7.40;1.85;;;;;;;;;;5069621;28;20066;-81
2023/07/30 13:13:36;;;;;;;4.25;0.98;;;;;;;;;;5065840;28;20035;-86
2023/07/30 13:16:02;;;;;;;6.93;1.40;;;;;;;;;;5053542;28;20028;-80
2023/07/30 13:18:29;;;;;;;11.90;1.52;;;;;;;;;;5053814;28;20066;-82
2023/07/30 13:20:55;;;;;;;8.18;1.65;;;;;;;;;;5048816;28;20032;-83
2023/07/30 13:23:21;;;;;;;9.85;1.60;;;;;;;;;;5070207;28;20036;-83
2023/07/30 13:25:47;;;;;;;8.88;2.45;;;;;;;;;;5071289;28;20036;-84
2023/07/30 13:28:13;;;;;;;5.13;1.20;;;;;;;;;;5048438;28;20046;-85
2023/07/30 13:30:39;;;;;;;6.75;1.55;;;;;;;;;;5068955;28;20453;-83
2023/07/30 13:33:07;;;;;;;4.88;1.27;;;;;;;;;;5067316;28;20039;-83
2023/07/30 13:35:33;;;;;;;7.28;1.60;;;;;;;;;;5048252;28;20032;-84
2023/07/30 13:37:59;;;;;;;6.10;1.90;;;;;;;;;;5048251;28;20040;-82
2023/07/30 13:40:25;;;;;;;7.13;1.45;;;;;;;;;;5047880;28;20205;-85
2023/07/30 13:42:51;;;;;;;7.82;1.58;;;;;;;;;;5064193;28;20119;-83
2023/07/30 13:45:20;;;;;;;10.77;1.92;;;;;;;;;;5069319;28;20040;-84
2023/07/30 13:47:48;;;;;;;5.82;1.35;;;;;;;;;;5052843;28;20058;-84
2023/07/30 13:50:14;;;;;;;8.40;1.40;;;;;;;;;;5068065;28;20036;-85
2023/07/30 13:52:44;;;;;;;7.80;1.63;;;;;;;;;;5068374;28;20029;-84
2023/07/30 13:55:12;;;;;;;8.90;1.42;;;;;;;;;;5070380;28;20102;-82
2023/07/30 13:57:38;;;;;;;3.25;1.30;;;;;;;;;;5046861;28;20133;-85
2023/07/30 14:00:04;;;;;;;4.53;1.85;;;;;;;;;;5064234;28;20436;-83
2023/07/30 14:02:34;;;;;;;7.70;1.50;;;;;;;;;;5069121;28;20052;-84
2023/07/30 14:05:00;;;;;;;6.38;1.10;;;;;;;;;;5051562;28;20749;-86
2023/07/30 14:07:26;;;;;;;6.05;1.08;;;;;;;;;;5069519;28;20047;-85
2023/07/30 14:09:54;;;;;;;4.45;1.13;;;;;;;;;;5063102;28;20040;-79
2023/07/30 14:12:20;;;;;;;8.20;1.15;;;;;;;;;;5047918;28;20085;-84
2023/07/30 14:14:46;;;;;;;4.78;1.27;;;;;;;;;;5069823;28;20459;-80
2023/07/30 14:17:12;;;;;;;5.00;1.50;;;;;;;;;;5067663;28;20060;-84
2023/07/30 14:19:38;;;;;;;5.30;1.10;;;;;;;;;;5064141;28;20035;-79
2023/07/30 14:22:04;;;;;;;4.97;0.98;;;;;;;;;;5050088;28;20131;-81
2023/07/30 14:24:30;;;;;;;9.00;1.25;;;;;;;;;;5068499;28;21504;-83
2023/07/30 14:26:58;;;;;;;12.38;1.17;;;;;;;;;;5046850;28;20089;-82
2023/07/30 14:29:24;;;;;;;5.95;0.95;;;;;;;;;;5049700;28;20038;-84
2023/07/30 14:31:50;;;;;;;6.70;1.33;;;;;;;;;;5067052;28;20032;-80
2023/07/30 14:34:21;;;;;;;5.28;1.17;;;;;;;;;;5049829;28;20032;-84
2023/07/30 14:36:47;;;;;;;4.63;0.90;;;;;;;;;;5049953;28;20020;-79
2023/07/30 14:39:13;;;;;;;4.05;0.88;;;;;;;;;;5068482;28;20541;-81